Terminal Aerodrome Forecast
Issued by NWS Sioux Falls, SD

Home | Current Version | Previous Version | Graphics & Text | Print | Product List | Glossary On
Versions: 1 2 3 4 5 6 7 8 9 10 11 12 13 14 15 16 17 18 19 20 21 22 23 24 25 26 27 28 29 30 31 32 33 34 35 36 37 38
000
FTUS43 KFSD 281720
TAFSUX
TAF
KSUX 281720Z 2818/2918 36010KT P6SM OVC014
     FM282200 01009KT P6SM OVC025
     FM290100 02008KT P6SM OVC035
     FM290800 04005KT 6SM BR OVC010
     FM291500 04008KT P6SM OVC015=

USA.gov is the U.S. government's official web portal to all federal, state and local government web resources and services.